Midland, Maryland
Current Conditions -  °F | °C
As of 2:02 AM on Monday 24 Nov 2014 (Local Time) from KCBE Reporting Station
Overcast Overcast  
Wind Chill: 52°   Ceiling: 1100
Heat Index: 52°   Visibility: 7mi
Dew Point: 52°   Wind: 5mph
Humidity: 100%   Direction: 240°WSW
Pressure: 29.64"   Gusts: NA
Location:  39.59°N, 78.95°W
Report Text: KCBE 240702Z AUTO 24004KT 7SM OVC011 11/11 A2964 RMK AO1
Loading
Personal Weather Stations






























Interactive Weather Map New forecast layout! Learn more

10-Day Weather Forecast

Advertisements
Track Severe Weather on mobile